createdAt,value
2022-08-20T00:02:07.540Z,19.87
2022-08-20T00:04:33.875Z,19.87
2022-08-20T00:07:00.195Z,19.88
2022-08-20T00:09:27.851Z,19.88
2022-08-20T00:11:56.331Z,19.89
2022-08-20T00:14:22.630Z,19.87
2022-08-20T00:16:48.929Z,19.89
2022-08-20T00:19:15.408Z,19.88
2022-08-20T00:21:41.731Z,19.90
2022-08-20T00:24:08.431Z,19.89
2022-08-20T00:26:36.087Z,19.91
2022-08-20T00:29:03.339Z,19.91
2022-08-20T00:31:29.678Z,19.92
2022-08-20T00:33:56.019Z,19.91
2022-08-20T00:36:22.694Z,19.91
2022-08-20T00:38:58.754Z,19.91
2022-08-20T00:41:26.591Z,19.90
2022-08-20T00:44:05.474Z,19.91
2022-08-20T00:46:32.581Z,19.89
2022-08-20T00:48:59.792Z,19.89
2022-08-20T00:51:30.592Z,19.87
2022-08-20T00:54:01.751Z,19.87
2022-08-20T00:56:28.358Z,19.85
2022-08-20T00:58:56.202Z,19.83
2022-08-20T01:01:22.554Z,19.84
2022-08-20T01:03:49.527Z,19.84
2022-08-20T01:06:15.878Z,19.80
2022-08-20T01:08:42.223Z,19.79
2022-08-20T01:11:08.652Z,19.77
2022-08-20T01:13:35.736Z,19.77
2022-08-20T01:16:04.550Z,19.78
2022-08-20T01:18:31.088Z,19.78
2022-08-20T01:20:58.607Z,19.79
2022-08-20T01:23:28.500Z,19.79
2022-08-20T01:25:57.060Z,19.79
2022-08-20T01:28:24.964Z,19.76
2022-08-20T01:30:51.663Z,19.76
2022-08-20T01:33:18.071Z,19.77
2022-08-20T01:35:44.444Z,19.77
2022-08-20T01:38:11.383Z,19.79
2022-08-20T01:40:50.195Z,19.78
2022-08-20T01:43:17.942Z,19.77
2022-08-20T01:45:44.643Z,19.76
2022-08-20T01:48:12.612Z,19.78
2022-08-20T01:50:41.756Z,19.80
2022-08-20T01:53:14.740Z,19.78
2022-08-20T01:55:41.148Z,19.79
2022-08-20T01:58:07.545Z,19.80
2022-08-20T02:00:35.392Z,19.80
2022-08-20T02:03:02.178Z,19.81
2022-08-20T02:05:30.682Z,19.80
2022-08-20T02:07:57.636Z,19.77
2022-08-20T02:10:24.487Z,19.83
2022-08-20T02:12:50.854Z,19.78
2022-08-20T02:15:19.743Z,19.71
2022-08-20T02:18:04.702Z,19.71
2022-08-20T02:20:35.040Z,19.65
2022-08-20T02:23:01.378Z,19.63
2022-08-20T02:25:29.303Z,19.62
2022-08-20T02:27:56.268Z,19.62
2022-08-20T02:30:27.795Z,19.67
2022-08-20T02:32:56.335Z,19.62
2022-08-20T02:35:24.571Z,19.59
2022-08-20T02:37:51.553Z,19.65
2022-08-20T02:40:18.975Z,19.60
2022-08-20T02:42:56.518Z,19.62
2022-08-20T02:45:22.874Z,19.54
2022-08-20T02:47:49.483Z,19.63
2022-08-20T02:50:17.481Z,19.70
2022-08-20T02:52:47.187Z,19.53
2022-08-20T02:55:23.133Z,19.49
2022-08-20T02:57:55.042Z,19.52
2022-08-20T03:00:26.118Z,19.46
2022-08-20T03:02:52.458Z,19.52
2022-08-20T03:05:18.879Z,19.43
2022-08-20T03:07:47.471Z,19.42
2022-08-20T03:10:13.810Z,19.49
2022-08-20T03:12:40.282Z,19.48
2022-08-20T03:15:07.292Z,19.53
2022-08-20T03:17:44.304Z,19.44
2022-08-20T03:20:11.247Z,19.46
2022-08-20T03:22:37.567Z,19.44
2022-08-20T03:25:06.012Z,19.39
2022-08-20T03:27:36.120Z,19.32
2022-08-20T03:30:03.440Z,19.46
2022-08-20T03:32:29.768Z,19.35
2022-08-20T03:34:56.083Z,19.39
2022-08-20T03:37:22.470Z,19.38
2022-08-20T03:39:48.828Z,19.25
2022-08-20T03:42:16.486Z,19.22
2022-08-20T03:44:42.828Z,19.25
2022-08-20T03:47:09.156Z,19.18
2022-08-20T03:49:35.724Z,19.14
2022-08-20T03:52:02.162Z,19.08
2022-08-20T03:54:31.867Z,19.05
2022-08-20T03:56:59.110Z,19.06
2022-08-20T03:59:28.487Z,18.96
2022-08-20T04:01:54.874Z,19.00
2022-08-20T04:04:21.219Z,18.95
2022-08-20T04:06:47.580Z,18.82
2022-08-20T04:09:14.367Z,18.82
2022-08-20T04:11:40.931Z,18.73
2022-08-20T04:14:07.312Z,18.77
2022-08-20T04:16:34.978Z,18.71
2022-08-20T04:19:02.271Z,18.69
2022-08-20T04:21:32.478Z,18.65
2022-08-20T04:24:00.028Z,18.63
2022-08-20T04:26:26.326Z,18.63
2022-08-20T04:28:52.647Z,18.64
2022-08-20T04:31:23.187Z,18.64
2022-08-20T04:33:52.655Z,18.58
2022-08-20T04:36:19.039Z,18.59
2022-08-20T04:38:50.540Z,18.58
2022-08-20T04:41:21.150Z,18.58
2022-08-20T04:43:49.698Z,18.58
2022-08-20T04:46:16.026Z,18.57
2022-08-20T04:48:42.343Z,18.57
2022-08-20T04:51:17.223Z,18.58
2022-08-20T04:53:44.700Z,18.58
2022-08-20T04:56:18.831Z,18.60
2022-08-20T04:58:45.251Z,18.57
2022-08-20T05:01:11.794Z,18.55
2022-08-20T05:03:39.155Z,18.54
2022-08-20T05:06:06.709Z,18.55
2022-08-20T05:08:35.019Z,18.56
2022-08-20T05:11:33.807Z,18.56
2022-08-20T05:13:48.532Z,18.54
2022-08-20T05:16:14.870Z,18.52
2022-08-20T05:18:41.207Z,18.51
2022-08-20T05:21:07.538Z,18.52
2022-08-20T05:23:37.220Z,18.52
2022-08-20T05:26:03.803Z,18.53
2022-08-20T05:28:30.253Z,18.53
2022-08-20T05:30:56.574Z,18.51
2022-08-20T05:33:23.158Z,18.47
2022-08-20T05:35:50.495Z,18.46
2022-08-20T05:38:18.044Z,18.47
2022-08-20T05:40:45.858Z,18.46
2022-08-20T05:43:12.200Z,18.43
2022-08-20T05:45:39.044Z,18.42
2022-08-20T05:48:05.404Z,18.42
2022-08-20T05:50:31.807Z,18.39
2022-08-20T05:52:58.123Z,18.41
2022-08-20T05:55:24.440Z,18.41
2022-08-20T05:57:56.400Z,18.45
2022-08-20T06:00:22.764Z,18.48
2022-08-20T06:02:49.084Z,18.48
2022-08-20T06:05:15.480Z,18.52
2022-08-20T06:07:41.812Z,18.47
2022-08-20T06:10:08.670Z,18.49
2022-08-20T06:12:34.996Z,18.51
2022-08-20T06:15:02.871Z,18.56
2022-08-20T06:17:29.232Z,18.56
2022-08-20T06:20:07.473Z,18.59
2022-08-20T06:22:33.866Z,18.64
2022-08-20T06:25:00.275Z,18.62
2022-08-20T06:27:26.914Z,18.57
2022-08-20T06:29:53.236Z,18.58
2022-08-20T06:32:32.126Z,18.61
2022-08-20T06:34:59.351Z,18.66
2022-08-20T06:37:30.917Z,18.73
2022-08-20T06:40:00.271Z,18.72
2022-08-20T06:42:26.657Z,18.69
2022-08-20T06:44:52.962Z,18.67
2022-08-20T06:47:21.241Z,18.67
2022-08-20T06:49:48.003Z,18.69
2022-08-20T06:52:14.607Z,18.74
2022-08-20T06:54:43.134Z,18.79
2022-08-20T06:57:09.466Z,18.84
2022-08-20T06:59:35.834Z,18.86
2022-08-20T07:02:02.197Z,18.91
2022-08-20T07:04:29.943Z,18.91
2022-08-20T07:06:56.582Z,18.92
2022-08-20T07:09:24.215Z,18.96
2022-08-20T07:11:50.971Z,18.96
2022-08-20T07:14:17.305Z,18.95
2022-08-20T07:16:43.690Z,18.96
2022-08-20T07:19:10.514Z,19.02
2022-08-20T07:21:38.204Z,19.06
2022-08-20T07:24:04.770Z,19.09
2022-08-20T07:26:31.413Z,19.12
2022-08-20T07:28:57.895Z,19.14
2022-08-20T07:31:24.231Z,19.17
2022-08-20T07:33:50.703Z,19.23
2022-08-20T07:36:19.488Z,19.25
2022-08-20T07:38:47.184Z,19.25
2022-08-20T07:41:13.841Z,19.25
2022-08-20T07:43:40.312Z,19.26
2022-08-20T07:46:07.051Z,19.24
2022-08-20T07:48:33.707Z,19.19
2022-08-20T07:51:00.766Z,19.11
2022-08-20T07:53:29.357Z,19.10
2022-08-20T07:55:59.994Z,19.16
2022-08-20T07:58:33.079Z,19.13
2022-08-20T08:01:00.138Z,19.12
2022-08-20T08:03:40.632Z,19.12
2022-08-20T08:06:13.315Z,19.09
2022-08-20T08:08:40.799Z,19.13
2022-08-20T08:11:08.493Z,19.13
2022-08-20T08:13:35.527Z,19.05
2022-08-20T08:16:04.364Z,19.05
2022-08-20T08:18:33.829Z,19.06
2022-08-20T08:21:00.165Z,19.07
2022-08-20T08:23:31.760Z,19.08
2022-08-20T08:25:58.394Z,19.09
2022-08-20T08:28:26.132Z,19.04
2022-08-20T08:30:52.423Z,19.04
2022-08-20T08:33:19.728Z,19.02
2022-08-20T08:35:46.047Z,19.07
2022-08-20T08:38:14.320Z,19.13
2022-08-20T08:40:41.194Z,19.11
2022-08-20T08:43:07.799Z,19.11
2022-08-20T08:45:39.007Z,19.10
2022-08-20T08:48:05.398Z,19.16
2022-08-20T08:50:54.377Z,19.22
2022-08-20T08:53:21.147Z,19.19
2022-08-20T08:55:47.566Z,19.25
2022-08-20T08:58:16.869Z,19.28
2022-08-20T09:00:56.426Z,19.35
2022-08-20T09:03:25.900Z,19.40
2022-08-20T09:05:53.407Z,19.36
2022-08-20T09:08:23.582Z,19.40
2022-08-20T09:10:50.218Z,19.42
2022-08-20T09:13:16.638Z,19.50
2022-08-20T09:15:42.949Z,19.58
2022-08-20T09:18:10.606Z,19.67
2022-08-20T09:20:36.930Z,19.78
2022-08-20T09:23:05.058Z,19.86
2022-08-20T09:25:31.394Z,19.99
2022-08-20T09:27:57.744Z,20.19
2022-08-20T09:30:24.166Z,20.39
2022-08-20T09:32:50.640Z,20.53
2022-08-20T09:35:18.362Z,20.69
2022-08-20T09:37:44.701Z,20.93
2022-08-20T09:40:12.474Z,21.11
2022-08-20T09:42:41.578Z,21.29
2022-08-20T09:45:11.192Z,21.37
2022-08-20T09:47:37.745Z,21.40
2022-08-20T09:50:06.986Z,21.38
2022-08-20T09:52:38.969Z,21.41
2022-08-20T09:55:10.907Z,21.51
2022-08-20T09:57:41.103Z,21.60
2022-08-20T10:00:08.996Z,21.66
2022-08-20T10:02:35.914Z,21.69
2022-08-20T10:05:02.227Z,21.74
2022-08-20T10:07:28.544Z,21.83
2022-08-20T10:09:56.262Z,21.75
2022-08-20T10:12:22.584Z,21.65
2022-08-20T10:14:48.905Z,21.43
2022-08-20T10:17:15.235Z,21.35
2022-08-20T10:19:41.572Z,21.39
2022-08-20T10:22:07.931Z,21.70
2022-08-20T10:24:34.899Z,21.73
2022-08-20T10:27:02.923Z,21.78
2022-08-20T10:29:30.361Z,21.83
2022-08-20T10:31:56.865Z,21.79
2022-08-20T10:34:23.439Z,21.83
2022-08-20T10:36:49.818Z,21.97
2022-08-20T10:39:16.190Z,22.08
2022-08-20T10:41:42.584Z,22.31
2022-08-20T10:44:10.227Z,22.49
2022-08-20T10:46:36.543Z,22.62
2022-08-20T10:49:02.888Z,22.76
2022-08-20T10:51:32.726Z,22.70
2022-08-20T10:53:59.399Z,22.84
2022-08-20T10:56:26.005Z,23.07
2022-08-20T10:58:52.347Z,23.20
2022-08-20T11:01:31.188Z,23.33
2022-08-20T11:03:59.610Z,23.46
2022-08-20T11:06:25.926Z,23.03
2022-08-20T11:08:52.247Z,23.15
2022-08-20T11:11:19.428Z,23.38
2022-08-20T11:13:45.729Z,23.52
2022-08-20T11:16:12.038Z,23.65
2022-08-20T11:18:41.815Z,23.55
2022-08-20T11:21:11.315Z,23.40
2022-08-20T11:23:37.646Z,23.15
2022-08-20T11:26:03.986Z,23.02
2022-08-20T11:28:31.086Z,22.82
2022-08-20T11:30:58.627Z,22.85
2022-08-20T11:33:24.941Z,22.87
2022-08-20T11:35:52.630Z,23.12
2022-08-20T11:38:19.178Z,23.34
2022-08-20T11:40:45.597Z,23.31
2022-08-20T11:43:15.217Z,23.18
2022-08-20T11:45:42.876Z,23.08
2022-08-20T11:48:09.207Z,22.96
2022-08-20T11:50:35.585Z,23.10
2022-08-20T11:53:03.272Z,23.30
2022-08-20T11:55:30.360Z,23.47
2022-08-20T11:57:57.329Z,23.51
2022-08-20T12:00:32.199Z,23.50
2022-08-20T12:03:00.111Z,23.64
2022-08-20T12:05:26.669Z,23.84
2022-08-20T12:07:53.019Z,24.02
2022-08-20T12:10:20.671Z,24.13
2022-08-20T12:12:47.005Z,24.28
2022-08-20T12:15:13.483Z,24.33
2022-08-20T12:17:39.806Z,24.16
2022-08-20T12:20:08.308Z,24.02
2022-08-20T12:22:34.683Z,23.86
2022-08-20T12:25:01.024Z,23.84
2022-08-20T12:27:30.573Z,23.97
2022-08-20T12:29:58.090Z,24.16
2022-08-20T12:32:25.937Z,24.19
2022-08-20T12:34:52.594Z,24.17
2022-08-20T12:37:20.187Z,24.15
2022-08-20T12:39:47.565Z,24.12
2022-08-20T12:42:14.227Z,24.19
2022-08-20T12:44:42.115Z,24.07
2022-08-20T12:47:10.231Z,24.13
2022-08-20T12:49:37.124Z,23.94
2022-08-20T12:52:03.723Z,24.11
2022-08-20T12:54:30.123Z,24.40
2022-08-20T12:56:56.666Z,24.29
2022-08-20T12:59:25.950Z,24.21
2022-08-20T13:01:53.936Z,24.25
2022-08-20T13:04:20.347Z,23.99
2022-08-20T13:06:47.238Z,23.85
2022-08-20T13:09:13.938Z,23.99
2022-08-20T13:11:40.290Z,24.12
2022-08-20T13:14:06.713Z,24.28
2022-08-20T13:16:33.044Z,24.43
2022-08-20T13:19:00.756Z,24.66
2022-08-20T13:21:27.064Z,24.46
2022-08-20T13:23:53.461Z,24.37
2022-08-20T13:26:19.786Z,24.41
2022-08-20T13:28:46.167Z,24.66
2022-08-20T13:31:12.489Z,24.64
2022-08-20T13:33:39.156Z,24.79
2022-08-20T13:36:07.150Z,24.64
2022-08-20T13:38:34.120Z,24.44
2022-08-20T13:41:00.438Z,24.15
2022-08-20T13:43:26.820Z,24.08
2022-08-20T13:45:53.149Z,23.91
2022-08-20T13:48:19.502Z,24.10
2022-08-20T13:50:47.260Z,24.01
2022-08-20T13:53:15.314Z,24.14
2022-08-20T13:55:41.719Z,24.36
2022-08-20T13:58:08.065Z,24.24
2022-08-20T14:00:34.720Z,24.16
2022-08-20T14:03:01.538Z,23.92
2022-08-20T14:05:28.519Z,23.99
2022-08-20T14:07:54.896Z,24.18
2022-08-20T14:10:23.931Z,24.21
2022-08-20T14:12:51.207Z,24.18
2022-08-20T14:15:17.934Z,24.35
2022-08-20T14:17:49.578Z,24.20
2022-08-20T14:20:17.836Z,24.38
2022-08-20T14:22:44.203Z,24.49
2022-08-20T14:25:11.522Z,24.51
2022-08-20T14:27:39.209Z,24.59
2022-08-20T14:30:07.952Z,24.63
2022-08-20T14:32:34.300Z,24.52
2022-08-20T14:35:00.612Z,24.33
2022-08-20T14:37:28.210Z,24.37
2022-08-20T14:39:55.560Z,24.34
2022-08-20T14:42:22.303Z,24.41
2022-08-20T14:44:50.415Z,24.49
2022-08-20T14:47:17.739Z,24.54
2022-08-20T14:49:44.936Z,24.52
2022-08-20T14:52:11.773Z,24.55
2022-08-20T14:54:38.629Z,24.54
2022-08-20T14:57:05.338Z,24.48
2022-08-20T14:59:39.783Z,24.49
2022-08-20T15:02:08.515Z,24.44
2022-08-20T15:04:35.407Z,24.43
2022-08-20T15:07:08.047Z,24.51
2022-08-20T15:09:37.327Z,24.41
2022-08-20T15:12:03.991Z,24.55
2022-08-20T15:14:30.313Z,24.60
2022-08-20T15:16:57.946Z,24.36
2022-08-20T15:19:25.691Z,24.49
2022-08-20T15:21:52.012Z,24.40
2022-08-20T15:24:19.224Z,24.33
2022-08-20T15:26:46.107Z,24.25
2022-08-20T15:29:12.563Z,24.19
2022-08-20T15:31:49.466Z,24.23
2022-08-20T15:34:18.072Z,24.34
2022-08-20T15:36:46.092Z,24.27
2022-08-20T15:39:12.415Z,24.22
2022-08-20T15:41:38.820Z,24.38
2022-08-20T15:44:05.222Z,24.34
2022-08-20T15:46:36.032Z,24.48
2022-08-20T15:49:11.106Z,24.47
2022-08-20T15:51:42.350Z,24.37
2022-08-20T15:54:13.428Z,24.56
2022-08-20T15:56:54.673Z,24.45
2022-08-20T15:59:26.173Z,24.26
2022-08-20T16:01:55.969Z,24.16
2022-08-20T16:04:41.046Z,24.15
2022-08-20T16:07:10.298Z,24.07
2022-08-20T16:09:46.706Z,23.94
2022-08-20T16:12:16.477Z,23.96
2022-08-20T16:14:45.014Z,23.86
2022-08-20T16:17:13.350Z,23.84
2022-08-20T16:19:44.997Z,23.83
2022-08-20T16:22:13.378Z,23.82
2022-08-20T16:24:39.708Z,24.01
2022-08-20T16:27:11.976Z,24.09
2022-08-20T16:29:53.927Z,24.16
2022-08-20T16:32:28.310Z,24.04
2022-08-20T16:34:56.616Z,23.83
2022-08-20T16:37:28.874Z,23.76
2022-08-20T16:39:58.390Z,23.69
2022-08-20T16:42:30.778Z,23.72
2022-08-20T16:44:57.348Z,23.63
2022-08-20T16:47:27.266Z,23.74
2022-08-20T16:49:57.533Z,23.66
2022-08-20T16:52:24.097Z,23.69
2022-08-20T16:54:50.476Z,23.72
2022-08-20T16:57:18.136Z,23.68
2022-08-20T16:59:55.776Z,23.66
2022-08-20T17:02:22.410Z,23.59
2022-08-20T17:04:59.224Z,23.58
2022-08-20T17:07:29.833Z,23.75
2022-08-20T17:10:10.176Z,23.53
2022-08-20T17:12:37.181Z,23.57
2022-08-20T17:15:06.146Z,23.37
2022-08-20T17:17:33.575Z,23.29
2022-08-20T17:20:01.052Z,23.25
2022-08-20T17:22:28.794Z,23.22
2022-08-20T17:24:55.353Z,23.19
2022-08-20T17:27:33.290Z,23.16
2022-08-20T17:30:04.718Z,23.13
2022-08-20T17:32:32.860Z,23.26
2022-08-20T17:35:00.349Z,23.26
2022-08-20T17:37:28.331Z,23.37
2022-08-20T17:40:06.190Z,23.16
2022-08-20T17:42:32.628Z,22.96
2022-08-20T17:45:04.737Z,22.95
2022-08-20T17:47:34.615Z,23.03
2022-08-20T17:50:03.290Z,22.95
2022-08-20T17:52:34.127Z,22.93
2022-08-20T17:55:01.843Z,22.79
2022-08-20T17:57:32.939Z,22.72
2022-08-20T18:00:02.539Z,22.63
2022-08-20T18:02:30.662Z,22.53
2022-08-20T18:04:58.409Z,22.66
2022-08-20T18:07:26.298Z,22.52
2022-08-20T18:09:57.159Z,22.35
2022-08-20T18:12:33.888Z,22.17
2022-08-20T18:15:06.271Z,22.18
2022-08-20T18:17:49.122Z,22.07
2022-08-20T18:20:37.763Z,21.95
2022-08-20T18:23:06.635Z,21.84
2022-08-20T18:25:34.932Z,21.75
2022-08-20T18:28:04.323Z,21.75
2022-08-20T18:30:32.723Z,21.62
2022-08-20T18:33:01.383Z,21.53
2022-08-20T18:35:34.243Z,21.46
2022-08-20T18:38:10.216Z,21.37
2022-08-20T18:40:37.271Z,21.29
2022-08-20T18:43:11.213Z,21.22
2022-08-20T18:45:37.596Z,21.11
2022-08-20T18:48:04.813Z,21.03
2022-08-20T18:50:42.810Z,20.96
2022-08-20T18:53:10.850Z,20.88
2022-08-20T18:55:40.814Z,20.82
2022-08-20T18:58:08.225Z,20.74
2022-08-20T19:00:38.393Z,20.67
2022-08-20T19:03:10.238Z,20.60
2022-08-20T19:05:40.059Z,20.55
2022-08-20T19:08:07.399Z,20.50
2022-08-20T19:10:47.116Z,20.47
2022-08-20T19:13:24.408Z,20.35
2022-08-20T19:15:53.479Z,20.34
2022-08-20T19:18:22.176Z,20.33
2022-08-20T19:20:52.417Z,20.30
2022-08-20T19:23:20.967Z,20.22
2022-08-20T19:25:51.314Z,20.14
2022-08-20T19:28:20.288Z,20.09
2022-08-20T19:30:46.641Z,20.02
2022-08-20T19:33:13.395Z,19.92
2022-08-20T19:35:39.838Z,19.82
2022-08-20T19:38:14.536Z,19.74
2022-08-20T19:40:46.110Z,19.64
2022-08-20T19:43:14.810Z,19.51
2022-08-20T19:45:43.921Z,19.41
2022-08-20T19:48:17.219Z,19.30
2022-08-20T19:51:00.863Z,19.24
2022-08-20T19:53:30.766Z,19.20
2022-08-20T19:55:59.095Z,19.21
2022-08-20T19:58:26.304Z,19.20
2022-08-20T20:00:53.688Z,19.20
2022-08-20T20:03:22.991Z,19.21
2022-08-20T20:05:50.834Z,19.16
2022-08-20T20:08:17.291Z,19.13
2022-08-20T20:10:49.771Z,19.07
2022-08-20T20:13:17.135Z,19.02
2022-08-20T20:15:43.585Z,18.99
2022-08-20T20:18:11.174Z,18.90
2022-08-20T20:20:50.319Z,18.78
2022-08-20T20:23:24.992Z,18.69
2022-08-20T20:25:57.012Z,18.59
2022-08-20T20:28:25.355Z,18.50
2022-08-20T20:30:51.767Z,18.38
2022-08-20T20:33:22.072Z,18.28
2022-08-20T20:36:00.970Z,18.16
2022-08-20T20:38:28.093Z,18.06
2022-08-20T20:40:57.079Z,18.00
2022-08-20T20:43:25.328Z,17.94
2022-08-20T20:46:01.085Z,17.88
2022-08-20T20:48:33.808Z,17.82
2022-08-20T20:51:00.689Z,17.78
2022-08-20T20:53:47.530Z,17.75
2022-08-20T20:56:30.086Z,17.67
2022-08-20T20:58:57.047Z,17.64
2022-08-20T21:01:28.900Z,17.62
2022-08-20T21:04:09.944Z,17.55
2022-08-20T21:06:36.571Z,17.51
2022-08-20T21:09:02.916Z,17.45
2022-08-20T21:11:30.612Z,17.41
2022-08-20T21:13:56.902Z,17.36
2022-08-20T21:16:23.239Z,17.35
2022-08-20T21:18:49.567Z,17.30
2022-08-20T21:21:15.871Z,17.28
2022-08-20T21:23:42.219Z,17.23
2022-08-20T21:26:08.667Z,17.24
2022-08-20T21:28:36.378Z,17.20
2022-08-20T21:31:03.127Z,17.13
2022-08-20T21:33:29.547Z,17.13
2022-08-20T21:35:55.899Z,17.09
2022-08-20T21:38:22.271Z,17.04
2022-08-20T21:40:50.002Z,17.00
2022-08-20T21:43:16.435Z,16.90
2022-08-20T21:45:46.556Z,16.84
2022-08-20T21:48:16.067Z,16.83
2022-08-20T21:50:42.470Z,16.81
2022-08-20T21:53:12.285Z,16.68
2022-08-20T21:55:39.858Z,16.57
2022-08-20T21:58:06.903Z,16.50
2022-08-20T22:00:57.142Z,16.45
2022-08-20T22:03:26.360Z,16.40
2022-08-20T22:05:53.494Z,16.35
2022-08-20T22:08:20.416Z,16.37
2022-08-20T22:10:47.295Z,16.35
2022-08-20T22:13:14.423Z,16.31
2022-08-20T22:15:40.723Z,16.27
2022-08-20T22:18:07.621Z,16.21
2022-08-20T22:20:35.815Z,16.15
2022-08-20T22:23:02.827Z,16.11
2022-08-20T22:25:29.223Z,16.12
2022-08-20T22:27:55.554Z,16.12
2022-08-20T22:30:21.906Z,16.10
2022-08-20T22:32:51.585Z,16.10
2022-08-20T22:35:18.837Z,16.09
2022-08-20T22:37:46.747Z,16.03
2022-08-20T22:40:13.444Z,16.01
2022-08-20T22:42:41.829Z,15.95
2022-08-20T22:45:11.737Z,15.93
2022-08-20T22:47:43.114Z,15.87
2022-08-20T22:50:10.397Z,15.86
2022-08-20T22:52:37.810Z,15.91
2022-08-20T22:55:06.146Z,15.87
2022-08-20T22:57:34.220Z,15.84
2022-08-20T23:00:01.041Z,15.83
2022-08-20T23:02:27.447Z,15.81
2022-08-20T23:04:53.849Z,15.78
2022-08-20T23:07:20.268Z,15.76
2022-08-20T23:09:46.691Z,15.75
2022-08-20T23:12:14.580Z,15.72
2022-08-20T23:14:41.166Z,15.70
2022-08-20T23:17:13.116Z,15.69
2022-08-20T23:19:40.414Z,15.68
2022-08-20T23:22:07.453Z,15.68
2022-08-20T23:24:34.000Z,15.66
2022-08-20T23:27:00.630Z,15.63
2022-08-20T23:29:28.513Z,15.60
2022-08-20T23:31:57.127Z,15.58
2022-08-20T23:34:23.822Z,15.58
2022-08-20T23:36:50.568Z,15.56
2022-08-20T23:39:17.266Z,15.53
2022-08-20T23:41:47.742Z,15.53
2022-08-20T23:44:25.918Z,15.50
2022-08-20T23:46:55.005Z,15.46
2022-08-20T23:49:21.748Z,15.48
2022-08-20T23:51:48.425Z,15.48
2022-08-20T23:54:14.799Z,15.46
2022-08-20T23:56:41.344Z,15.44
2022-08-20T23:59:07.802Z,15.41
